createdAt,value
2023-05-15T00:00:48.980Z,513.00
2023-05-15T00:01:49.012Z,511.00
2023-05-15T00:02:49.144Z,516.00
2023-05-15T00:03:49.109Z,513.00
2023-05-15T00:04:49.116Z,508.00
2023-05-15T00:05:49.105Z,515.00
2023-05-15T00:06:49.865Z,510.00
2023-05-15T00:07:49.161Z,509.00
2023-05-15T00:08:49.875Z,508.00
2023-05-15T00:09:49.214Z,510.00
2023-05-15T00:11:00.682Z,511.00
2023-05-15T00:11:50.266Z,512.00
2023-05-15T00:12:49.411Z,512.00
2023-05-15T00:13:49.290Z,513.00
2023-05-15T00:14:49.297Z,510.00
2023-05-15T00:15:49.393Z,515.00
2023-05-15T00:16:49.345Z,510.00
2023-05-15T00:17:49.366Z,514.00
2023-05-15T00:18:49.390Z,506.00
2023-05-15T00:19:49.365Z,508.00
2023-05-15T00:20:49.371Z,506.00
2023-05-15T00:21:49.400Z,509.00
2023-05-15T00:22:49.395Z,512.00
2023-05-15T00:23:49.484Z,512.00
2023-05-15T00:24:49.487Z,512.00
2023-05-15T00:25:49.420Z,509.00
2023-05-15T00:26:49.453Z,515.00
2023-05-15T00:27:49.459Z,512.00
2023-05-15T00:28:49.463Z,511.00
2023-05-15T00:29:49.487Z,510.00
2023-05-15T00:30:49.502Z,511.00
2023-05-15T00:31:49.629Z,513.00
2023-05-15T00:32:49.571Z,504.00
2023-05-15T00:33:49.528Z,512.00
2023-05-15T00:34:50.383Z,512.00
2023-05-15T00:35:49.569Z,509.00
2023-05-15T00:36:49.572Z,510.00
2023-05-15T00:37:49.605Z,509.00
2023-05-15T00:38:49.648Z,512.00
2023-05-15T00:39:49.686Z,509.00
2023-05-15T00:40:49.666Z,513.00
2023-05-15T00:41:49.713Z,512.00
2023-05-15T00:42:49.747Z,515.00
2023-05-15T00:43:49.778Z,510.00
2023-05-15T00:44:49.816Z,508.00
2023-05-15T00:45:49.900Z,510.00
2023-05-15T00:46:49.914Z,512.00
2023-05-15T00:47:50.010Z,510.00
2023-05-15T00:48:49.973Z,512.00
2023-05-15T00:49:50.002Z,505.00
2023-05-15T00:50:50.042Z,506.00
2023-05-15T00:51:50.083Z,505.00
2023-05-15T00:52:50.125Z,506.00
2023-05-15T00:53:50.185Z,505.00
2023-05-15T00:54:50.213Z,509.00
2023-05-15T00:55:50.316Z,510.00
2023-05-15T00:56:50.285Z,511.00
2023-05-15T00:57:50.338Z,507.00
2023-05-15T00:58:50.378Z,509.00
2023-05-15T00:59:50.418Z,509.00
2023-05-15T01:00:50.501Z,506.00
2023-05-15T01:01:50.502Z,512.00
2023-05-15T01:02:50.598Z,510.00
2023-05-15T01:03:50.591Z,511.00
2023-05-15T01:04:50.647Z,505.00
2023-05-15T01:05:50.689Z,510.00
2023-05-15T01:06:50.733Z,508.00
2023-05-15T01:07:50.768Z,505.00
2023-05-15T01:08:50.815Z,510.00
2023-05-15T01:09:50.855Z,510.00
2023-05-15T01:10:50.890Z,510.00
2023-05-15T01:11:50.944Z,507.00
2023-05-15T01:12:50.986Z,508.00
2023-05-15T01:13:51.014Z,507.00
2023-05-15T01:14:51.413Z,514.00
2023-05-15T01:15:51.097Z,508.00
2023-05-15T01:16:51.136Z,511.00
2023-05-15T01:17:51.227Z,505.00
2023-05-15T01:18:51.281Z,511.00
2023-05-15T01:19:51.358Z,507.00
2023-05-15T01:20:51.305Z,506.00
2023-05-15T01:21:51.341Z,503.00
2023-05-15T01:22:51.414Z,507.00
2023-05-15T01:23:51.420Z,510.00
2023-05-15T01:24:51.468Z,510.00
2023-05-15T01:25:51.509Z,509.00
2023-05-15T01:26:51.548Z,506.00
2023-05-15T01:27:51.620Z,506.00
2023-05-15T01:28:51.724Z,506.00
2023-05-15T01:29:51.701Z,503.00
2023-05-15T01:30:51.740Z,506.00
2023-05-15T01:31:51.783Z,508.00
2023-05-15T01:32:51.846Z,509.00
2023-05-15T01:33:51.870Z,508.00
2023-05-15T01:34:51.888Z,507.00
2023-05-15T01:35:52.414Z,507.00
2023-05-15T01:36:52.014Z,507.00
2023-05-15T01:37:52.019Z,507.00
2023-05-15T01:38:52.055Z,506.00
2023-05-15T01:39:52.094Z,506.00
2023-05-15T01:40:52.155Z,507.00
2023-05-15T01:41:52.194Z,510.00
2023-05-15T01:42:52.241Z,508.00
2023-05-15T01:43:52.272Z,507.00
2023-05-15T01:44:52.327Z,508.00
2023-05-15T01:45:52.401Z,508.00
2023-05-15T01:46:52.466Z,505.00
2023-05-15T01:47:52.478Z,508.00
2023-05-15T01:48:52.545Z,508.00
2023-05-15T01:49:52.564Z,507.00
2023-05-15T01:50:52.657Z,507.00
2023-05-15T01:51:52.668Z,507.00
2023-05-15T01:52:52.714Z,507.00
2023-05-15T01:53:52.764Z,506.00
2023-05-15T01:54:52.814Z,507.00
2023-05-15T01:55:52.860Z,507.00
2023-05-15T01:56:52.906Z,505.00
2023-05-15T01:57:52.952Z,507.00
2023-05-15T01:58:53.005Z,504.00
2023-05-15T01:59:53.037Z,505.00
2023-05-15T02:00:53.079Z,507.00
2023-05-15T02:01:53.168Z,508.00
2023-05-15T02:02:53.208Z,506.00
2023-05-15T02:03:53.339Z,507.00
2023-05-15T02:04:53.265Z,505.00
2023-05-15T02:05:53.319Z,506.00
2023-05-15T02:06:53.439Z,505.00
2023-05-15T02:07:53.433Z,507.00
2023-05-15T02:08:53.475Z,508.00
2023-05-15T02:09:53.527Z,508.00
2023-05-15T02:10:53.609Z,503.00
2023-05-15T02:11:53.621Z,509.00
2023-05-15T02:12:53.685Z,506.00
2023-05-15T02:13:53.729Z,507.00
2023-05-15T02:14:53.771Z,506.00
2023-05-15T02:15:53.922Z,506.00
2023-05-15T02:16:53.884Z,509.00
2023-05-15T02:17:54.961Z,508.00
2023-05-15T02:18:54.071Z,507.00
2023-05-15T02:19:54.038Z,507.00
2023-05-15T02:20:54.096Z,507.00
2023-05-15T02:21:54.149Z,507.00
2023-05-15T02:22:54.197Z,507.00
2023-05-15T02:23:54.258Z,506.00
2023-05-15T02:24:54.280Z,500.00
2023-05-15T02:25:54.340Z,509.00
2023-05-15T02:26:54.393Z,509.00
2023-05-15T02:27:54.504Z,507.00
2023-05-15T02:28:54.493Z,506.00
2023-05-15T02:29:54.539Z,506.00
2023-05-15T02:30:54.597Z,507.00
2023-05-15T02:31:54.843Z,510.00
2023-05-15T02:32:54.723Z,509.00
2023-05-15T02:33:54.754Z,509.00
2023-05-15T02:34:54.794Z,508.00
2023-05-15T02:35:54.866Z,504.00
2023-05-15T02:36:54.988Z,506.00
2023-05-15T02:37:54.972Z,507.00
2023-05-15T02:38:54.992Z,507.00
2023-05-15T02:39:55.053Z,508.00
2023-05-15T02:40:55.438Z,505.00
2023-05-15T02:41:55.167Z,507.00
2023-05-15T02:42:55.216Z,504.00
2023-05-15T02:43:55.274Z,508.00
2023-05-15T02:44:55.327Z,506.00
2023-05-15T02:45:55.415Z,507.00
2023-05-15T02:46:55.949Z,505.00
2023-05-15T02:47:55.633Z,506.00
2023-05-15T02:48:55.555Z,507.00
2023-05-15T02:49:55.588Z,508.00
2023-05-15T02:50:55.646Z,508.00
2023-05-15T02:51:55.691Z,508.00
2023-05-15T02:52:55.744Z,506.00
2023-05-15T02:53:55.860Z,506.00
2023-05-15T02:54:55.847Z,506.00
2023-05-15T02:55:55.906Z,505.00
2023-05-15T02:56:55.982Z,506.00
2023-05-15T02:57:56.016Z,504.00
2023-05-15T02:58:56.133Z,506.00
2023-05-15T02:59:56.942Z,505.00
2023-05-15T03:00:56.221Z,506.00
2023-05-15T03:01:56.224Z,503.00
2023-05-15T03:02:56.312Z,505.00
2023-05-15T03:03:56.344Z,505.00
2023-05-15T03:04:56.387Z,505.00
2023-05-15T03:05:56.445Z,503.00
2023-05-15T03:06:56.497Z,505.00
2023-05-15T03:07:56.541Z,504.00
2023-05-15T03:08:56.620Z,505.00
2023-05-15T03:09:56.723Z,505.00
2023-05-15T03:10:56.705Z,505.00
2023-05-15T03:11:56.786Z,502.00
2023-05-15T03:12:56.811Z,503.00
2023-05-15T03:13:56.962Z,507.00
2023-05-15T03:14:57.434Z,504.00
2023-05-15T03:15:56.981Z,503.00
2023-05-15T03:16:57.095Z,504.00
2023-05-15T03:17:57.102Z,505.00
2023-05-15T03:18:57.181Z,504.00
2023-05-15T03:19:57.231Z,505.00
2023-05-15T03:20:57.357Z,506.00
2023-05-15T03:21:57.318Z,504.00
2023-05-15T03:22:57.396Z,504.00
2023-05-15T03:23:57.943Z,504.00
2023-05-15T03:24:57.495Z,505.00
2023-05-15T03:25:57.553Z,504.00
2023-05-15T03:26:57.620Z,504.00
2023-05-15T03:27:57.702Z,507.00
2023-05-15T03:28:57.729Z,505.00
2023-05-15T03:29:57.778Z,505.00
2023-05-15T03:30:57.888Z,504.00
2023-05-15T03:31:57.919Z,506.00
2023-05-15T03:32:58.011Z,504.00
2023-05-15T03:33:58.002Z,505.00
2023-05-15T03:34:58.067Z,505.00
2023-05-15T03:35:58.117Z,504.00
2023-05-15T03:36:58.185Z,504.00
2023-05-15T03:37:58.480Z,503.00
2023-05-15T03:38:58.952Z,502.00
2023-05-15T03:39:58.394Z,504.00
2023-05-15T03:40:58.430Z,501.00
2023-05-15T03:41:58.503Z,502.00
2023-05-15T03:42:58.542Z,502.00
2023-05-15T03:43:58.607Z,501.00
2023-05-15T03:44:58.666Z,503.00
2023-05-15T03:45:58.733Z,505.00
2023-05-15T03:46:58.833Z,503.00
2023-05-15T03:47:58.900Z,504.00
2023-05-15T03:48:58.917Z,505.00
2023-05-15T03:49:58.978Z,505.00
2023-05-15T03:50:59.058Z,503.00
2023-05-15T03:51:59.108Z,504.00
2023-05-15T03:52:59.207Z,501.00
2023-05-15T03:53:59.225Z,503.00
2023-05-15T03:54:59.316Z,504.00
2023-05-15T03:55:59.360Z,503.00
2023-05-15T03:56:59.418Z,502.00
2023-05-15T03:57:59.490Z,503.00
2023-05-15T03:58:59.543Z,503.00
2023-05-15T03:59:59.619Z,504.00
2023-05-15T04:00:59.728Z,505.00
2023-05-15T04:02:05.075Z,504.00
2023-05-15T04:03:00.805Z,504.00
2023-05-15T04:03:59.779Z,505.00
2023-05-15T04:04:59.808Z,505.00
2023-05-15T04:05:59.804Z,506.00
2023-05-15T04:06:59.806Z,506.00
2023-05-15T04:07:59.826Z,503.00
2023-05-15T04:08:59.834Z,503.00
2023-05-15T04:09:59.851Z,505.00
2023-05-15T04:10:59.855Z,502.00
2023-05-15T04:11:59.872Z,502.00
2023-05-15T04:12:59.891Z,502.00
2023-05-15T04:13:59.954Z,501.00
2023-05-15T04:14:59.979Z,502.00
2023-05-15T04:16:00.186Z,501.00
2023-05-15T04:17:00.115Z,505.00
2023-05-15T04:18:00.247Z,502.00
2023-05-15T04:19:00.304Z,501.00
2023-05-15T04:20:00.290Z,501.00
2023-05-15T04:21:00.969Z,500.00
2023-05-15T04:22:00.424Z,503.00
2023-05-15T04:23:00.557Z,501.00
2023-05-15T04:24:00.547Z,502.00
2023-05-15T04:25:00.618Z,501.00
2023-05-15T04:26:00.690Z,503.00
2023-05-15T04:27:00.805Z,502.00
2023-05-15T04:28:00.810Z,504.00
2023-05-15T04:29:04.299Z,504.00
2023-05-15T04:30:00.875Z,504.00
2023-05-15T04:31:00.877Z,504.00
2023-05-15T04:32:00.999Z,504.00
2023-05-15T04:33:00.958Z,504.00
2023-05-15T04:34:00.901Z,501.00
2023-05-15T04:35:00.914Z,503.00
2023-05-15T04:36:00.921Z,500.00
2023-05-15T04:37:00.940Z,502.00
2023-05-15T04:38:00.995Z,504.00
2023-05-15T04:39:00.965Z,501.00
2023-05-15T04:40:00.971Z,501.00
2023-05-15T04:41:00.983Z,501.00
2023-05-15T04:42:01.014Z,502.00
2023-05-15T04:43:01.001Z,502.00
2023-05-15T04:44:01.035Z,502.00
2023-05-15T04:45:01.150Z,500.00
2023-05-15T04:46:01.148Z,504.00
2023-05-15T04:47:01.121Z,504.00
2023-05-15T04:48:01.114Z,504.00
2023-05-15T04:49:01.085Z,503.00
2023-05-15T04:50:01.130Z,502.00
2023-05-15T04:51:01.124Z,505.00
2023-05-15T04:52:01.151Z,505.00
2023-05-15T04:53:01.154Z,505.00
2023-05-15T04:54:01.167Z,500.00
2023-05-15T04:55:01.316Z,503.00
2023-05-15T04:56:01.269Z,503.00
2023-05-15T04:57:01.305Z,505.00
2023-05-15T04:58:01.365Z,502.00
2023-05-15T04:59:01.983Z,502.00
2023-05-15T05:00:01.498Z,501.00
2023-05-15T05:01:03.887Z,502.00
2023-05-15T05:02:01.751Z,503.00
2023-05-15T05:03:01.679Z,504.00
2023-05-15T05:04:01.654Z,503.00
2023-05-15T05:05:01.652Z,501.00
2023-05-15T05:06:01.629Z,502.00
2023-05-15T05:07:01.650Z,503.00
2023-05-15T05:08:01.653Z,500.00
2023-05-15T05:09:01.664Z,500.00
2023-05-15T05:10:01.718Z,501.00
2023-05-15T05:11:01.694Z,502.00
2023-05-15T05:12:01.701Z,501.00
2023-05-15T05:13:01.708Z,503.00
2023-05-15T05:14:01.725Z,505.00
2023-05-15T05:15:01.728Z,502.00
2023-05-15T05:16:01.752Z,501.00
2023-05-15T05:17:01.754Z,503.00
2023-05-15T05:18:01.814Z,502.00
2023-05-15T05:19:01.832Z,508.00
2023-05-15T05:20:01.797Z,511.00
2023-05-15T05:21:01.802Z,515.00
2023-05-15T05:22:01.840Z,515.00
2023-05-15T05:23:01.836Z,518.00
2023-05-15T05:24:01.828Z,522.00
2023-05-15T05:25:01.864Z,526.00
2023-05-15T05:26:02.987Z,533.00
2023-05-15T05:27:01.867Z,541.00
2023-05-15T05:28:01.876Z,543.00
2023-05-15T05:29:01.874Z,544.00
2023-05-15T05:30:01.884Z,548.00
2023-05-15T05:31:02.092Z,548.00
2023-05-15T05:32:01.953Z,545.00
2023-05-15T05:33:01.964Z,543.00
2023-05-15T05:34:02.964Z,544.00
2023-05-15T05:35:02.020Z,542.00
2023-05-15T05:36:03.021Z,542.00
2023-05-15T05:37:02.045Z,542.00
2023-05-15T05:38:02.045Z,542.00
2023-05-15T05:39:02.053Z,542.00
2023-05-15T05:40:02.079Z,541.00
2023-05-15T05:41:02.072Z,541.00
2023-05-15T05:42:02.083Z,537.00
2023-05-15T05:43:02.091Z,539.00
2023-05-15T05:44:02.100Z,538.00
2023-05-15T05:45:02.147Z,539.00
2023-05-15T05:46:02.127Z,539.00
2023-05-15T05:47:02.210Z,537.00
2023-05-15T05:48:02.204Z,536.00
2023-05-15T05:49:02.254Z,539.00
2023-05-15T05:50:02.332Z,538.00
2023-05-15T05:51:02.376Z,538.00
2023-05-15T05:52:02.443Z,537.00
2023-05-15T05:53:03.006Z,537.00
2023-05-15T05:54:02.554Z,539.00
2023-05-15T05:55:02.617Z,537.00
2023-05-15T05:56:02.672Z,537.00
2023-05-15T05:57:02.807Z,535.00
2023-05-15T05:58:06.502Z,539.00
2023-05-15T05:59:05.003Z,539.00
2023-05-15T06:00:03.072Z,539.00
2023-05-15T06:01:03.184Z,539.00
2023-05-15T06:02:03.235Z,539.00
2023-05-15T06:03:03.311Z,538.00
2023-05-15T06:04:03.446Z,538.00
2023-05-15T06:05:03.363Z,541.00
2023-05-15T06:06:03.489Z,537.00
2023-05-15T06:07:03.496Z,537.00
2023-05-15T06:08:03.551Z,537.00
2023-05-15T06:09:03.614Z,536.00
2023-05-15T06:10:03.675Z,537.00
2023-05-15T06:11:03.742Z,537.00
2023-05-15T06:12:03.802Z,533.00
2023-05-15T06:13:04.514Z,537.00
2023-05-15T06:14:03.994Z,535.00
2023-05-15T06:15:03.991Z,535.00
2023-05-15T06:16:04.056Z,534.00
2023-05-15T06:17:04.211Z,534.00
2023-05-15T06:18:04.259Z,537.00
2023-05-15T06:19:04.320Z,533.00
2023-05-15T06:20:04.317Z,535.00
2023-05-15T06:21:04.384Z,533.00
2023-05-15T06:22:04.517Z,535.00
2023-05-15T06:23:04.511Z,534.00
2023-05-15T06:24:04.623Z,534.00
2023-05-15T06:25:04.633Z,536.00
2023-05-15T06:26:04.693Z,532.00
2023-05-15T06:27:04.829Z,534.00
2023-05-15T06:28:04.844Z,533.00
2023-05-15T06:29:04.897Z,529.00
2023-05-15T06:30:04.998Z,532.00
2023-05-15T06:31:05.077Z,533.00
2023-05-15T06:32:05.084Z,535.00
2023-05-15T06:33:05.243Z,533.00
2023-05-15T06:34:05.214Z,531.00
2023-05-15T06:35:05.276Z,532.00
2023-05-15T06:36:05.357Z,533.00
2023-05-15T06:37:05.414Z,536.00
2023-05-15T06:38:05.492Z,532.00
2023-05-15T06:39:05.539Z,532.00
2023-05-15T06:40:05.672Z,531.00
2023-05-15T06:41:06.589Z,533.00
2023-05-15T06:42:05.772Z,532.00
2023-05-15T06:43:05.808Z,531.00
2023-05-15T06:44:05.875Z,533.00
2023-05-15T06:45:05.921Z,529.00
2023-05-15T06:46:06.009Z,528.00
2023-05-15T06:47:06.169Z,532.00
2023-05-15T06:48:06.132Z,530.00
2023-05-15T06:49:06.185Z,531.00
2023-05-15T06:50:06.287Z,530.00
2023-05-15T06:51:06.272Z,528.00
2023-05-15T06:52:06.322Z,529.00
2023-05-15T06:53:06.383Z,528.00
2023-05-15T06:54:06.441Z,531.00
2023-05-15T06:55:06.503Z,531.00
2023-05-15T06:56:06.552Z,528.00
2023-05-15T06:57:06.588Z,529.00
2023-05-15T06:58:06.709Z,531.00
2023-05-15T06:59:06.698Z,535.00
2023-05-15T07:00:06.764Z,529.00
2023-05-15T07:01:06.824Z,532.00
2023-05-15T07:02:06.921Z,530.00
2023-05-15T07:03:06.952Z,528.00
2023-05-15T07:04:07.365Z,530.00
2023-05-15T07:05:07.335Z,531.00
2023-05-15T07:06:07.066Z,530.00
2023-05-15T07:07:07.238Z,529.00
2023-05-15T07:08:07.184Z,529.00
2023-05-15T07:09:07.259Z,531.00
2023-05-15T07:10:07.309Z,532.00
2023-05-15T07:11:07.363Z,533.00
2023-05-15T07:12:07.407Z,535.00
2023-05-15T07:13:07.532Z,531.00
2023-05-15T07:14:07.526Z,532.00
2023-05-15T07:15:07.575Z,534.00
2023-05-15T07:16:07.645Z,531.00
2023-05-15T07:17:07.725Z,533.00
2023-05-15T07:18:07.840Z,533.00
2023-05-15T07:19:07.841Z,530.00
2023-05-15T07:20:07.871Z,532.00
2023-05-15T07:21:07.968Z,532.00
2023-05-15T07:22:07.988Z,532.00
2023-05-15T07:23:08.044Z,531.00
2023-05-15T07:24:08.100Z,547.00
2023-05-15T07:25:08.152Z,548.00
2023-05-15T07:26:13.986Z,572.00
2023-05-15T07:27:09.311Z,573.00
2023-05-15T07:28:08.240Z,579.00
2023-05-15T07:29:08.623Z,593.00
2023-05-15T07:30:08.259Z,624.00
2023-05-15T07:31:08.309Z,688.00
2023-05-15T07:32:08.556Z,733.00
2023-05-15T07:33:08.360Z,797.00
2023-05-15T07:34:08.312Z,849.00
2023-05-15T07:35:08.330Z,901.00
2023-05-15T07:36:08.395Z,942.00
2023-05-15T07:37:08.515Z,978.00
2023-05-15T07:38:08.403Z,1021.00
2023-05-15T07:39:08.448Z,1062.00
2023-05-15T07:40:08.497Z,1085.00
2023-05-15T07:41:08.598Z,1112.00
2023-05-15T07:42:08.609Z,1150.00
2023-05-15T07:43:08.658Z,1185.00
2023-05-15T07:44:08.703Z,1208.00
2023-05-15T07:45:08.825Z,1243.00
2023-05-15T07:46:08.843Z,1281.00
2023-05-15T07:47:08.849Z,1298.00
2023-05-15T07:48:09.657Z,1338.00
2023-05-15T07:49:08.944Z,1358.00
2023-05-15T07:50:09.017Z,1382.00
2023-05-15T07:51:09.058Z,1409.00
2023-05-15T07:52:09.153Z,1438.00
2023-05-15T07:53:09.242Z,1470.00
2023-05-15T07:54:09.192Z,1478.00
2023-05-15T07:55:09.225Z,1503.00
2023-05-15T07:56:09.242Z,1517.00
2023-05-15T07:57:09.287Z,1547.00
2023-05-15T07:58:09.333Z,1561.00
2023-05-15T07:59:09.450Z,1594.00
2023-05-15T08:00:09.570Z,1635.00
2023-05-15T08:01:09.492Z,1691.00
2023-05-15T08:02:09.493Z,1679.00
2023-05-15T08:03:09.628Z,1711.00
2023-05-15T08:04:09.690Z,1732.00
2023-05-15T08:05:09.538Z,1732.00
2023-05-15T08:06:09.554Z,1736.00
2023-05-15T08:07:09.576Z,1753.00
2023-05-15T08:08:09.591Z,1759.00
2023-05-15T08:09:09.605Z,1801.00
2023-05-15T08:10:09.626Z,1827.00
2023-05-15T08:11:09.662Z,1880.00
2023-05-15T08:12:09.671Z,1892.00
2023-05-15T08:13:10.569Z,1893.00
2023-05-15T08:14:11.666Z,1722.00
2023-05-15T08:15:09.753Z,1530.00
2023-05-15T08:16:09.805Z,1315.00
2023-05-15T08:17:09.776Z,1241.00
2023-05-15T08:18:10.623Z,1187.00
2023-05-15T08:19:09.825Z,1106.00
2023-05-15T08:20:10.487Z,1029.00
2023-05-15T08:21:09.838Z,1041.00
2023-05-15T08:22:09.851Z,1009.00
2023-05-15T08:23:10.572Z,1005.00
2023-05-15T08:24:09.900Z,1042.00
2023-05-15T08:25:09.922Z,1100.00
2023-05-15T08:26:10.567Z,1142.00
2023-05-15T08:27:10.979Z,1156.00
2023-05-15T08:28:09.980Z,1169.00
2023-05-15T08:29:10.038Z,1207.00
2023-05-15T08:30:09.979Z,1213.00
2023-05-15T08:31:10.015Z,1232.00
2023-05-15T08:32:10.012Z,1263.00
2023-05-15T08:33:10.078Z,1285.00
2023-05-15T08:34:10.021Z,1315.00
2023-05-15T08:35:10.570Z,1345.00
2023-05-15T08:36:10.075Z,1378.00
2023-05-15T08:37:10.032Z,1397.00
2023-05-15T08:38:10.033Z,1449.00
2023-05-15T08:39:10.037Z,1497.00
2023-05-15T08:40:10.033Z,1524.00
2023-05-15T08:41:10.576Z,1545.00
2023-05-15T08:42:10.106Z,1585.00
2023-05-15T08:43:10.075Z,1612.00
2023-05-15T08:44:10.042Z,1644.00
2023-05-15T08:45:10.015Z,1654.00
2023-05-15T08:46:10.030Z,1694.00
2023-05-15T08:47:10.127Z,1741.00
2023-05-15T08:48:10.229Z,1771.00
2023-05-15T08:49:10.019Z,1791.00
2023-05-15T08:50:10.012Z,1828.00
2023-05-15T08:51:10.083Z,1859.00
2023-05-15T08:52:09.979Z,1892.00
2023-05-15T08:53:09.990Z,1926.00
2023-05-15T08:54:09.988Z,1955.00
2023-05-15T08:55:09.993Z,1991.00
2023-05-15T08:56:09.998Z,2030.00
2023-05-15T08:57:10.121Z,2040.00
2023-05-15T08:58:10.012Z,2054.00
2023-05-15T08:59:09.979Z,2081.00
2023-05-15T09:00:09.996Z,2117.00
2023-05-15T09:01:11.542Z,2120.00
2023-05-15T09:02:10.054Z,2165.00
2023-05-15T09:03:10.099Z,2173.00
2023-05-15T09:04:10.079Z,2231.00
2023-05-15T09:05:10.025Z,2272.00
2023-05-15T09:06:09.985Z,2288.00
2023-05-15T09:07:10.075Z,2326.00
2023-05-15T09:08:10.589Z,2341.00
2023-05-15T09:09:10.086Z,2369.00
2023-05-15T09:10:10.182Z,2387.00
2023-05-15T09:11:10.181Z,2394.00
2023-05-15T09:12:10.217Z,2432.00
2023-05-15T09:13:10.327Z,2434.00
2023-05-15T09:14:10.300Z,2453.00
2023-05-15T09:15:10.400Z,2501.00
2023-05-15T09:16:10.389Z,2512.00
2023-05-15T09:17:10.434Z,2515.00
2023-05-15T09:18:10.458Z,2532.00
2023-05-15T09:19:10.548Z,2544.00
2023-05-15T09:20:10.408Z,2521.00
2023-05-15T09:21:10.402Z,2543.00
2023-05-15T09:22:11.092Z,2541.00
2023-05-15T09:23:10.483Z,2558.00
2023-05-15T09:24:10.387Z,2547.00
2023-05-15T09:25:10.386Z,2557.00
2023-05-15T09:26:10.382Z,2555.00
2023-05-15T09:27:11.098Z,2551.00
2023-05-15T09:28:10.394Z,2560.00
2023-05-15T09:29:10.433Z,2563.00
2023-05-15T09:30:10.421Z,2572.00
2023-05-15T09:31:10.436Z,2554.00
2023-05-15T09:32:10.551Z,2547.00
2023-05-15T09:33:11.510Z,2549.00
2023-05-15T09:34:10.463Z,2539.00
2023-05-15T09:35:10.444Z,2552.00
2023-05-15T09:36:10.449Z,2554.00
2023-05-15T09:37:10.443Z,2551.00
2023-05-15T09:38:10.461Z,2535.00
2023-05-15T09:39:10.436Z,2532.00
2023-05-15T09:40:10.554Z,2545.00
2023-05-15T09:41:10.435Z,2532.00
2023-05-15T09:42:10.467Z,2538.00
2023-05-15T09:43:10.429Z,2521.00
2023-05-15T09:44:11.113Z,2515.00
2023-05-15T09:45:10.429Z,2505.00
2023-05-15T09:46:10.503Z,2508.00
2023-05-15T09:47:10.538Z,2509.00
2023-05-15T09:48:10.582Z,2500.00
2023-05-15T09:49:10.553Z,2514.00
2023-05-15T09:50:10.593Z,2495.00
2023-05-15T09:51:11.588Z,2496.00
2023-05-15T09:52:10.591Z,2496.00
2023-05-15T09:53:10.586Z,2490.00
2023-05-15T09:54:10.579Z,2497.00
2023-05-15T09:55:10.572Z,2490.00
2023-05-15T09:56:10.606Z,2496.00
2023-05-15T09:57:10.587Z,2486.00
2023-05-15T09:58:10.570Z,2482.00
2023-05-15T09:59:10.554Z,2468.00
2023-05-15T10:00:10.553Z,2475.00
2023-05-15T10:01:10.644Z,2480.00
2023-05-15T10:02:11.602Z,2476.00
2023-05-15T10:03:10.740Z,2477.00
2023-05-15T10:04:10.777Z,2464.00
2023-05-15T10:05:10.911Z,2474.00
2023-05-15T10:06:10.953Z,2462.00
2023-05-15T10:07:10.937Z,2460.00
2023-05-15T10:08:10.998Z,2456.00
2023-05-15T10:09:11.116Z,2457.00
2023-05-15T10:10:11.199Z,2456.00
2023-05-15T10:11:11.166Z,2444.00
2023-05-15T10:12:12.120Z,2450.00
2023-05-15T10:13:11.281Z,2442.00
2023-05-15T10:14:11.439Z,2450.00
2023-05-15T10:15:11.480Z,2435.00
2023-05-15T10:16:11.571Z,2441.00
2023-05-15T10:17:11.528Z,2439.00
2023-05-15T10:18:11.870Z,2436.00
2023-05-15T10:19:11.725Z,2428.00
2023-05-15T10:20:11.787Z,2431.00
2023-05-15T10:21:11.772Z,2413.00
2023-05-15T10:22:11.836Z,2417.00
2023-05-15T10:23:12.036Z,2408.00
2023-05-15T10:24:11.974Z,2402.00
2023-05-15T10:25:12.043Z,2405.00
2023-05-15T10:26:12.100Z,2394.00
2023-05-15T10:27:12.161Z,2390.00
2023-05-15T10:28:13.129Z,2380.00
2023-05-15T10:29:12.299Z,2375.00
2023-05-15T10:30:13.133Z,2379.00
2023-05-15T10:31:12.517Z,2377.00
2023-05-15T10:32:12.564Z,2365.00
2023-05-15T10:33:12.599Z,2366.00
2023-05-15T10:34:12.627Z,2360.00
2023-05-15T10:35:12.677Z,2360.00
2023-05-15T10:36:12.741Z,2356.00
2023-05-15T10:37:12.798Z,2336.00
2023-05-15T10:38:12.858Z,2350.00
2023-05-15T10:39:12.917Z,2346.00
2023-05-15T10:40:12.955Z,2343.00
2023-05-15T10:41:17.759Z,2344.00
2023-05-15T10:42:12.946Z,2345.00
2023-05-15T10:43:12.946Z,2346.00
2023-05-15T10:44:12.941Z,2344.00
2023-05-15T10:45:12.935Z,2344.00
2023-05-15T10:46:13.021Z,2345.00
2023-05-15T10:47:13.009Z,2341.00
2023-05-15T10:48:12.969Z,2329.00
2023-05-15T10:49:13.628Z,2326.00
2023-05-15T10:50:13.086Z,2317.00
2023-05-15T10:51:14.129Z,2310.00
2023-05-15T10:52:13.204Z,2315.00
2023-05-15T10:53:14.289Z,2316.00
2023-05-15T10:54:13.203Z,2317.00
2023-05-15T10:55:13.221Z,2309.00
2023-05-15T10:56:14.160Z,2304.00
2023-05-15T10:57:13.239Z,2295.00
2023-05-15T10:58:13.225Z,2292.00
2023-05-15T10:59:13.277Z,2299.00
2023-05-15T11:00:13.237Z,2287.00
2023-05-15T11:01:13.375Z,2290.00
2023-05-15T11:02:13.255Z,2285.00
2023-05-15T11:03:13.297Z,2284.00
2023-05-15T11:04:13.383Z,2275.00
2023-05-15T11:05:13.472Z,2268.00
2023-05-15T11:06:13.533Z,2265.00
2023-05-15T11:07:13.582Z,2258.00
2023-05-15T11:08:13.639Z,2262.00
2023-05-15T11:09:13.635Z,2247.00
2023-05-15T11:10:13.704Z,2250.00
2023-05-15T11:11:13.851Z,2245.00
2023-05-15T11:12:13.846Z,2236.00
2023-05-15T11:13:13.903Z,2246.00
2023-05-15T11:14:14.051Z,2236.00
2023-05-15T11:15:14.052Z,2239.00
2023-05-15T11:16:14.364Z,2228.00
2023-05-15T11:17:14.231Z,2223.00
2023-05-15T11:18:14.340Z,2231.00
2023-05-15T11:19:14.412Z,2220.00
2023-05-15T11:20:14.483Z,2217.00
2023-05-15T11:21:14.462Z,2205.00
2023-05-15T11:22:14.527Z,2206.00
2023-05-15T11:23:14.621Z,2199.00
2023-05-15T11:24:14.672Z,2199.00
2023-05-15T11:25:14.736Z,2195.00
2023-05-15T11:26:14.806Z,2190.00
2023-05-15T11:27:14.876Z,2187.00
2023-05-15T11:28:14.944Z,2179.00
2023-05-15T11:29:15.015Z,2184.00
2023-05-15T11:30:15.188Z,2182.00
2023-05-15T11:31:15.218Z,2166.00
2023-05-15T11:32:15.224Z,2166.00
2023-05-15T11:33:15.359Z,2162.00
2023-05-15T11:34:15.362Z,2155.00
2023-05-15T11:35:15.431Z,2153.00
2023-05-15T11:36:15.551Z,2155.00
2023-05-15T11:37:15.581Z,2154.00
2023-05-15T11:38:15.654Z,2151.00
2023-05-15T11:39:15.716Z,2135.00
2023-05-15T11:40:15.808Z,2137.00
2023-05-15T11:41:15.868Z,2138.00
2023-05-15T11:42:15.904Z,2135.00
2023-05-15T11:43:15.963Z,2131.00
2023-05-15T11:44:16.334Z,2133.00
2023-05-15T11:45:16.094Z,2112.00
2023-05-15T11:46:16.161Z,2115.00
2023-05-15T11:47:16.227Z,2120.00
2023-05-15T11:48:16.519Z,2106.00
2023-05-15T11:49:16.354Z,2114.00
2023-05-15T11:50:16.409Z,2108.00
2023-05-15T11:51:16.497Z,2108.00
2023-05-15T11:52:16.555Z,2102.00
2023-05-15T11:53:16.641Z,2099.00
2023-05-15T11:54:16.722Z,2097.00
2023-05-15T11:55:16.767Z,2094.00
2023-05-15T11:56:16.996Z,2088.00
2023-05-15T11:57:16.894Z,2085.00
2023-05-15T11:58:16.965Z,2083.00
2023-05-15T11:59:17.043Z,2081.00
2023-05-15T12:00:17.108Z,2079.00
2023-05-15T12:01:17.182Z,2075.00
2023-05-15T12:02:17.244Z,2077.00
2023-05-15T12:03:17.383Z,2066.00
2023-05-15T12:04:17.547Z,2066.00
2023-05-15T12:05:17.528Z,2064.00
2023-05-15T12:06:17.520Z,2052.00
2023-05-15T12:07:17.595Z,2054.00
2023-05-15T12:08:17.748Z,2054.00
2023-05-15T12:09:17.761Z,2049.00
2023-05-15T12:10:17.878Z,2055.00
2023-05-15T12:11:17.864Z,2054.00
2023-05-15T12:12:17.933Z,2048.00
2023-05-15T12:13:17.994Z,2042.00
2023-05-15T12:14:18.064Z,2045.00
2023-05-15T12:15:18.143Z,2037.00
2023-05-15T12:16:18.218Z,2040.00
2023-05-15T12:17:18.257Z,2027.00
2023-05-15T12:18:18.358Z,2028.00
2023-05-15T12:19:18.517Z,2034.00
2023-05-15T12:20:18.521Z,2018.00